Mashai Store Airport


Codes: FXMS/
Name: Mashai Store Airport
City: Mashai Store
Country: Lesotho
Elevation: 7300 ft.

Photos at Mashai Store Airport


   Photos courtesy of SpottingLog. You can add your own sightings and photos by signing up for a free trial today.



No photos found.

Weather at Mashai Store Airport


Time (UTC)DescriptionTempratureWindCloud coverageVisibilityPressureHumidity
16-Jun-2024 12:00Clear Sky15°C2 mph, NW3%10000m1024hPa23%
16-Jun-2024 15:00Scattered Clouds13°C4 mph, W31%10000m1023hPa27%
16-Jun-2024 18:00Broken Clouds9°C2 mph, NW62%10000m1025hPa36%
16-Jun-2024 21:00Broken Clouds8°C4 mph, NW82%10000m1025hPa40%
17-Jun-2024 00:00Broken Clouds7°C4 mph, NW81%10000m1026hPa45%
17-Jun-2024 03:00Overcast Clouds6°C4 mph, N97%10000m1026hPa49%
17-Jun-2024 06:00Broken Clouds8°C4 mph, N80%10000m1026hPa41%
17-Jun-2024 09:00Few Clouds14°C4 mph, N23%10000m1023hPa25%
17-Jun-2024 12:00Few Clouds17°C7 mph, NW16%10000m1018hPa18%
17-Jun-2024 15:00Clear Sky12°C7 mph, NW3%10000m1018hPa28%
17-Jun-2024 18:00Clear Sky8°C7 mph, NW2%10000m1021hPa47%
17-Jun-2024 21:00Few Clouds9°C9 mph, NW24%10000m1021hPa53%
18-Jun-2024 00:00Scattered Clouds8°C9 mph, NW32%10000m1019hPa64%
18-Jun-2024 03:00Clear Sky7°C9 mph, N2%10000m1018hPa71%
18-Jun-2024 06:00Clear Sky8°C7 mph, N1%10000m1020hPa69%
18-Jun-2024 09:00Clear Sky15°C18 mph, NW0%10000m1018hPa27%
18-Jun-2024 12:00Clear Sky16°C13 mph, NW0%10000m1016hPa21%
18-Jun-2024 15:00Clear Sky12°C7 mph, NW0%10000m1018hPa35%
18-Jun-2024 18:00Clear Sky8°C4 mph, NW0%10000m1021hPa46%
18-Jun-2024 21:00Clear Sky7°C4 mph, NW0%10000m1021hPa49%
19-Jun-2024 00:00Clear Sky6°C4 mph, N0%10000m1021hPa50%
19-Jun-2024 03:00Clear Sky5°C4 mph, N0%10000m1021hPa47%
19-Jun-2024 06:00Clear Sky7°C4 mph, N0%10000m1023hPa34%
19-Jun-2024 09:00Clear Sky14°C4 mph, N0%10000m1021hPa15%
19-Jun-2024 12:00Clear Sky17°C4 mph, NW0%10000m1018hPa11%
19-Jun-2024 15:00Clear Sky11°C0 mph, NW0%10000m1019hPa19%
19-Jun-2024 18:00Clear Sky8°C2 mph, S0%10000m1022hPa25%
19-Jun-2024 21:00Clear Sky6°C0 mph, NW0%10000m1024hPa30%
20-Jun-2024 00:00Clear Sky4°C2 mph, N0%10000m1025hPa39%
20-Jun-2024 03:00Clear Sky4°C4 mph, N0%10000m1026hPa48%
20-Jun-2024 06:00Clear Sky6°C4 mph, N0%10000m1027hPa48%
20-Jun-2024 09:00Clear Sky13°C4 mph, N0%10000m1025hPa23%
20-Jun-2024 12:00Clear Sky17°C9 mph, NW1%10000m1021hPa13%
20-Jun-2024 15:00Clear Sky12°C7 mph, NW0%10000m1023hPa24%
20-Jun-2024 18:00Clear Sky9°C7 mph, N2%10000m1025hPa33%
20-Jun-2024 21:00Clear Sky7°C7 mph, N1%10000m1026hPa35%
21-Jun-2024 00:00Clear Sky7°C7 mph, N0%10000m1026hPa38%
21-Jun-2024 03:00Clear Sky6°C7 mph, N0%10000m1027hPa45%
21-Jun-2024 06:00Clear Sky8°C7 mph, N3%10000m1029hPa47%
21-Jun-2024 09:00Few Clouds15°C4 mph, NW23%10000m1026hPa33%